createdAt,value
2022-09-01T00:01:27.278Z,1.33
2022-09-01T00:03:55.570Z,1.52
2022-09-01T00:06:24.188Z,2.22
2022-09-01T00:08:57.376Z,2.30
2022-09-01T00:11:26.981Z,2.33
2022-09-01T00:13:55.599Z,2.25
2022-09-01T00:16:22.724Z,2.78
2022-09-01T00:18:51.679Z,3.38
2022-09-01T00:21:21.206Z,2.75
2022-09-01T00:23:48.128Z,4.70
2022-09-01T00:26:15.479Z,2.78
2022-09-01T00:28:42.561Z,4.93
2022-09-01T00:31:11.256Z,1.30
2022-09-01T00:33:38.689Z,2.47
2022-09-01T00:36:06.128Z,1.60
2022-09-01T00:38:34.339Z,3.00
2022-09-01T00:41:01.879Z,1.20
2022-09-01T00:43:48.479Z,1.65
2022-09-01T00:46:30.091Z,0.98
2022-09-01T00:49:02.769Z,2.00
2022-09-01T00:51:32.193Z,1.77
2022-09-01T00:53:59.493Z,1.08
2022-09-01T00:56:26.670Z,1.33
2022-09-01T00:58:54.039Z,1.17
2022-09-01T01:01:21.287Z,0.77
2022-09-01T01:03:48.258Z,1.00
2022-09-01T01:06:16.927Z,1.73
2022-09-01T01:08:57.762Z,1.02
2022-09-01T01:11:28.079Z,0.38
2022-09-01T01:13:58.835Z,1.27
2022-09-01T01:16:27.687Z,3.03
2022-09-01T01:18:55.460Z,0.85
2022-09-01T01:21:44.363Z,0.75
2022-09-01T01:24:31.861Z,1.80
2022-09-01T01:27:00.181Z,1.35
2022-09-01T01:29:32.580Z,1.33
2022-09-01T01:32:00.745Z,1.70
2022-09-01T01:34:28.001Z,2.42
2022-09-01T01:36:55.253Z,1.00
2022-09-01T01:39:27.140Z,2.58
2022-09-01T01:41:55.795Z,1.30
2022-09-01T01:44:28.192Z,0.70
2022-09-01T01:46:59.395Z,1.58
2022-09-01T01:49:29.202Z,0.93
2022-09-01T01:51:56.953Z,0.95
2022-09-01T01:54:52.272Z,1.50
2022-09-01T01:57:19.792Z,0.95
2022-09-01T01:59:47.253Z,1.45
2022-09-01T02:02:14.679Z,1.80
2022-09-01T02:04:43.552Z,0.65
2022-09-01T02:07:13.653Z,1.00
2022-09-01T02:09:44.192Z,2.33
2022-09-01T02:12:11.294Z,4.97
2022-09-01T02:14:42.711Z,1.60
2022-09-01T02:17:09.684Z,1.63
2022-09-01T02:19:40.575Z,1.75
2022-09-01T02:22:11.505Z,2.08
2022-09-01T02:24:38.592Z,1.75
2022-09-01T02:27:06.452Z,2.22
2022-09-01T02:29:40.136Z,1.17
2022-09-01T02:32:11.744Z,0.90
2022-09-01T02:34:39.512Z,2.17
2022-09-01T02:37:06.571Z,2.15
2022-09-01T02:39:33.738Z,1.33
2022-09-01T02:42:01.692Z,2.50
2022-09-01T02:44:31.278Z,1.77
2022-09-01T02:47:02.025Z,1.25
2022-09-01T02:49:29.995Z,1.88
2022-09-01T02:52:01.471Z,1.48
2022-09-01T02:54:31.655Z,1.25
2022-09-01T02:56:58.854Z,2.90
2022-09-01T02:59:28.906Z,1.05
2022-09-01T03:01:59.196Z,1.88
2022-09-01T03:04:27.466Z,0.57
2022-09-01T03:06:59.010Z,1.52
2022-09-01T03:09:26.513Z,2.28
2022-09-01T03:11:54.695Z,1.70
2022-09-01T03:14:24.762Z,1.45
2022-09-01T03:16:52.563Z,3.38
2022-09-01T03:19:20.014Z,1.05
2022-09-01T03:21:48.742Z,2.42
2022-09-01T03:24:22.371Z,1.50
2022-09-01T03:26:51.193Z,1.05
2022-09-01T03:29:19.515Z,6.55
2022-09-01T03:31:46.923Z,2.45
2022-09-01T03:34:16.461Z,1.40
2022-09-01T03:36:53.411Z,2.25
2022-09-01T03:39:26.370Z,2.58
2022-09-01T03:41:53.898Z,1.63
2022-09-01T03:44:21.156Z,3.38
2022-09-01T03:46:48.239Z,2.30
2022-09-01T03:49:16.997Z,1.90
2022-09-01T03:51:45.323Z,0.82
2022-09-01T03:54:12.852Z,1.83
2022-09-01T03:56:41.758Z,1.92
2022-09-01T03:59:17.242Z,1.30
2022-09-01T04:01:45.947Z,3.08
2022-09-01T04:04:14.083Z,1.13
2022-09-01T04:06:43.231Z,1.75
2022-09-01T04:09:10.957Z,0.57
2022-09-01T04:11:45.610Z,2.05
2022-09-01T04:14:15.293Z,1.05
2022-09-01T04:17:02.712Z,2.03
2022-09-01T04:19:30.700Z,1.60
2022-09-01T04:22:00.399Z,1.02
2022-09-01T04:24:35.812Z,2.25
2022-09-01T04:27:04.035Z,1.08
2022-09-01T04:29:32.183Z,1.33
2022-09-01T04:32:06.912Z,1.02
2022-09-01T04:34:38.516Z,1.95
2022-09-01T04:37:18.815Z,2.28
2022-09-01T04:39:56.256Z,1.30
2022-09-01T04:42:27.364Z,2.38
2022-09-01T04:44:57.755Z,1.20
2022-09-01T04:47:35.666Z,2.35
2022-09-01T04:50:14.514Z,1.25
2022-09-01T04:53:06.147Z,1.25
2022-09-01T04:55:43.661Z,0.70
2022-09-01T04:58:17.512Z,1.40
2022-09-01T05:00:52.509Z,1.98
2022-09-01T05:03:23.534Z,2.65
2022-09-01T05:06:14.739Z,0.70
2022-09-01T05:08:46.873Z,0.82
2022-09-01T05:11:29.022Z,0.52
2022-09-01T05:14:04.951Z,1.23
2022-09-01T05:16:32.579Z,1.27
2022-09-01T05:19:01.534Z,0.85
2022-09-01T05:21:33.434Z,1.88
2022-09-01T05:24:01.538Z,0.50
2022-09-01T05:26:31.202Z,3.53
2022-09-01T05:29:01.902Z,1.85
2022-09-01T05:31:37.923Z,0.98
2022-09-01T05:34:05.483Z,1.13
2022-09-01T05:36:33.856Z,3.33
2022-09-01T05:39:04.257Z,0.57
2022-09-01T05:41:31.709Z,2.00
2022-09-01T05:44:00.793Z,0.70
2022-09-01T05:46:30.254Z,0.60
2022-09-01T05:48:58.712Z,1.63
2022-09-01T05:51:46.443Z,0.35
2022-09-01T05:54:18.681Z,0.30
2022-09-01T05:56:46.199Z,1.35
2022-09-01T05:59:25.835Z,0.70
2022-09-01T06:01:58.163Z,0.88
2022-09-01T06:04:26.970Z,1.23
2022-09-01T06:07:08.957Z,1.00
2022-09-01T06:09:41.604Z,0.98
2022-09-01T06:12:18.156Z,0.93
2022-09-01T06:14:49.915Z,1.10
2022-09-01T06:17:24.966Z,1.13
2022-09-01T06:19:57.772Z,0.57
2022-09-01T06:22:28.363Z,0.93
2022-09-01T06:25:02.394Z,0.40
2022-09-01T06:27:34.364Z,1.38
2022-09-01T06:30:01.710Z,1.60
2022-09-01T06:32:37.150Z,1.20
2022-09-01T06:35:08.478Z,0.90
2022-09-01T06:37:38.345Z,0.70
2022-09-01T06:40:17.274Z,1.40
2022-09-01T06:42:47.630Z,1.80
2022-09-01T06:45:15.816Z,0.88
2022-09-01T06:47:45.363Z,1.52
2022-09-01T06:51:14.917Z,1.58
2022-09-01T06:55:59.639Z,0.73
2022-09-01T06:58:26.827Z,0.55
2022-09-01T07:00:54.169Z,0.45
2022-09-01T07:03:22.709Z,3.90
2022-09-01T07:06:07.530Z,0.70
2022-09-01T07:12:27.855Z,0.73
2022-09-01T07:17:52.584Z,1.52
2022-09-01T07:20:24.649Z,1.33
2022-09-01T07:23:04.153Z,1.73
2022-09-01T07:26:00.380Z,0.88
2022-09-01T07:28:37.872Z,2.88
2022-09-01T07:39:52.543Z,1.02
2022-09-01T07:49:02.673Z,1.45
2022-09-01T07:51:42.350Z,0.85
2022-09-01T07:54:12.391Z,0.80
2022-09-01T07:56:40.624Z,0.40
2022-09-01T07:59:15.425Z,0.80
2022-09-01T08:02:06.728Z,1.85
2022-09-01T08:04:34.711Z,0.68
2022-09-01T08:07:03.348Z,0.85
2022-09-01T08:09:37.824Z,0.98
2022-09-01T08:12:08.378Z,1.30
2022-09-01T08:14:43.530Z,0.80
2022-09-01T08:17:17.983Z,0.93
2022-09-01T08:20:08.752Z,1.17
2022-09-01T08:22:49.482Z,1.77
2022-09-01T08:25:24.935Z,0.35
2022-09-01T08:27:59.757Z,1.63
2022-09-01T08:30:28.450Z,1.27
2022-09-01T08:32:59.664Z,0.73
2022-09-01T08:35:29.591Z,0.50
2022-09-01T08:38:00.350Z,1.13
2022-09-01T08:40:27.647Z,0.40
2022-09-01T08:43:17.591Z,1.17
2022-09-01T08:45:58.950Z,2.60
2022-09-01T08:52:11.271Z,0.63
2022-09-01T08:54:58.834Z,0.82
2022-09-01T08:57:31.850Z,2.85
2022-09-01T09:00:24.475Z,1.55
2022-09-01T09:03:00.909Z,1.30
2022-09-01T09:05:38.605Z,0.63
2022-09-01T09:08:29.605Z,1.55
2022-09-01T09:11:06.556Z,0.70
2022-09-01T09:13:59.010Z,0.20
2022-09-01T09:16:32.521Z,0.52
2022-09-01T09:19:11.150Z,0.95
2022-09-01T09:21:47.513Z,0.43
2022-09-01T09:24:27.271Z,1.20
2022-09-01T09:27:04.117Z,2.00
2022-09-01T09:29:31.411Z,0.85
2022-09-01T09:32:06.976Z,1.25
2022-09-01T09:34:49.918Z,0.40
2022-09-01T09:37:18.230Z,1.27
2022-09-01T09:39:45.494Z,2.65
2022-09-01T09:42:15.158Z,3.92
2022-09-01T09:44:49.224Z,1.23
2022-09-01T09:47:44.402Z,5.15
2022-09-01T09:50:17.909Z,1.00
2022-09-01T09:52:48.006Z,0.28
2022-09-01T09:55:26.031Z,1.00
2022-09-01T09:58:00.190Z,0.77
2022-09-01T10:00:34.624Z,2.78
2022-09-01T10:03:10.197Z,1.65
2022-09-01T10:05:48.572Z,1.77
2022-09-01T10:08:45.430Z,1.50
2022-09-01T10:11:35.612Z,0.65
2022-09-01T10:14:47.698Z,1.20
2022-09-01T10:17:16.604Z,0.30
2022-09-01T10:19:49.951Z,1.13
2022-09-01T10:22:17.117Z,1.42
2022-09-01T10:24:45.841Z,1.02
2022-09-01T10:27:20.152Z,0.45
2022-09-01T10:30:12.223Z,1.52
2022-09-01T10:32:56.976Z,0.85
2022-09-01T10:35:32.314Z,1.00
2022-09-01T10:38:02.462Z,0.93
2022-09-01T10:40:31.613Z,4.32
2022-09-01T10:43:05.621Z,1.35
2022-09-01T10:45:38.219Z,3.05
2022-09-01T10:48:30.752Z,0.80
2022-09-01T10:51:19.195Z,1.10
2022-09-01T10:53:48.350Z,0.90
2022-09-01T10:56:28.385Z,0.35
2022-09-01T11:01:52.902Z,0.80
2022-09-01T11:04:24.936Z,0.88
2022-09-01T11:10:32.085Z,2.38
2022-09-01T11:13:04.571Z,0.73
2022-09-01T11:15:36.473Z,1.25
2022-09-01T11:18:08.990Z,1.85
2022-09-01T11:20:41.099Z,2.35
2022-09-01T11:25:45.229Z,5.38
2022-09-01T11:28:15.139Z,3.60
2022-09-01T11:30:55.564Z,0.73
2022-09-01T11:33:34.786Z,3.15
2022-09-01T11:36:13.610Z,2.08
2022-09-01T11:38:55.110Z,3.03
2022-09-01T11:41:32.087Z,2.67
2022-09-01T11:44:00.970Z,1.67
2022-09-01T11:46:32.756Z,1.00
2022-09-01T11:49:08.932Z,2.45
2022-09-01T11:51:47.370Z,0.90
2022-09-01T11:54:15.309Z,3.75
2022-09-01T11:56:42.510Z,0.50
2022-09-01T11:59:09.665Z,0.85
2022-09-01T12:01:38.670Z,3.92
2022-09-01T12:04:22.361Z,0.45
2022-09-01T12:07:02.440Z,0.40
2022-09-01T12:09:42.432Z,1.75
2022-09-01T12:12:27.091Z,0.63
2022-09-01T12:15:05.643Z,0.70
2022-09-01T12:17:34.694Z,0.60
2022-09-01T12:20:29.248Z,0.32
2022-09-01T12:22:59.230Z,0.75
2022-09-01T12:25:34.314Z,1.70
2022-09-01T12:28:02.589Z,2.45
2022-09-01T12:30:30.108Z,1.05
2022-09-01T12:35:45.649Z,0.47
2022-09-01T12:38:29.052Z,0.50
2022-09-01T12:40:57.312Z,0.50
2022-09-01T12:43:39.909Z,0.82
2022-09-01T12:46:10.857Z,1.00
2022-09-01T12:48:41.936Z,0.47
2022-09-01T12:51:29.274Z,0.23
2022-09-01T12:54:00.666Z,0.93
2022-09-01T12:56:33.733Z,3.05
2022-09-01T12:59:15.540Z,0.88
2022-09-01T13:01:44.535Z,1.58
2022-09-01T13:04:33.931Z,1.27
2022-09-01T13:07:04.450Z,1.08
2022-09-01T13:09:31.890Z,1.30
2022-09-01T13:12:19.459Z,0.90
2022-09-01T13:14:47.249Z,1.55
2022-09-01T13:17:14.901Z,2.65
2022-09-01T13:19:42.521Z,1.00
2022-09-01T13:22:10.334Z,1.58
2022-09-01T13:24:37.998Z,1.58
2022-09-01T13:27:21.759Z,2.20
2022-09-01T13:29:50.488Z,0.85
2022-09-01T13:32:20.909Z,0.60
2022-09-01T13:34:53.446Z,2.22
2022-09-01T13:37:22.090Z,0.43
2022-09-01T13:39:49.391Z,1.63
2022-09-01T13:42:17.394Z,1.45
2022-09-01T13:44:44.837Z,3.70
2022-09-01T13:50:10.273Z,3.88
2022-09-01T13:52:41.469Z,1.05
2022-09-01T13:55:12.490Z,1.02
2022-09-01T13:57:39.597Z,1.83
2022-09-01T14:00:12.790Z,0.68
2022-09-01T14:02:43.158Z,1.33
2022-09-01T14:05:10.871Z,2.63
2022-09-01T14:07:37.891Z,0.30
2022-09-01T14:10:07.284Z,0.80
2022-09-01T14:12:34.990Z,0.88
2022-09-01T14:15:19.776Z,5.10
2022-09-01T14:17:51.332Z,0.98
2022-09-01T14:20:20.983Z,1.85
2022-09-01T14:22:50.164Z,0.57
2022-09-01T14:25:20.213Z,4.82
2022-09-01T14:27:48.588Z,2.33
2022-09-01T14:30:22.429Z,3.05
2022-09-01T14:32:50.529Z,0.93
2022-09-01T14:35:19.509Z,1.48
2022-09-01T14:37:46.957Z,3.95
2022-09-01T14:40:17.093Z,1.95
2022-09-01T14:42:49.684Z,6.32
2022-09-01T14:45:22.253Z,1.77
2022-09-01T14:47:51.041Z,2.70
2022-09-01T14:50:22.658Z,2.35
2022-09-01T14:52:54.358Z,2.03
2022-09-01T14:55:23.578Z,2.72
2022-09-01T14:57:51.178Z,1.23
2022-09-01T15:00:18.721Z,1.67
2022-09-01T15:02:45.977Z,1.40
2022-09-01T15:05:13.406Z,0.73
2022-09-01T15:07:41.790Z,1.85
2022-09-01T15:10:11.190Z,0.73
2022-09-01T15:12:43.370Z,1.65
2022-09-01T15:15:10.530Z,2.25
2022-09-01T15:17:37.595Z,2.13
2022-09-01T15:20:24.654Z,1.00
2022-09-01T15:22:51.725Z,0.55
2022-09-01T15:25:19.036Z,0.47
2022-09-01T15:27:46.784Z,2.42
2022-09-01T15:30:17.265Z,0.60
2022-09-01T15:32:46.547Z,2.20
2022-09-01T15:35:14.743Z,2.53
2022-09-01T15:37:42.048Z,2.10
2022-09-01T15:40:10.014Z,0.47
2022-09-01T15:42:38.594Z,0.77
2022-09-01T15:45:09.275Z,0.45
2022-09-01T15:47:36.624Z,3.25
2022-09-01T15:50:05.904Z,1.73
2022-09-01T15:52:34.798Z,1.95
2022-09-01T15:55:03.619Z,1.25
2022-09-01T15:57:30.637Z,1.45
2022-09-01T15:59:58.118Z,3.65
2022-09-01T16:02:27.252Z,1.38
2022-09-01T16:04:56.835Z,1.05
2022-09-01T16:07:23.913Z,0.40
2022-09-01T16:09:58.041Z,1.88
2022-09-01T16:12:26.601Z,1.80
2022-09-01T16:14:55.234Z,0.65
2022-09-01T16:17:45.152Z,0.73
2022-09-01T16:20:21.629Z,0.60
2022-09-01T16:22:55.907Z,1.45
2022-09-01T16:25:31.737Z,0.98
2022-09-01T16:28:05.236Z,1.65
2022-09-01T16:30:32.466Z,0.63
2022-09-01T16:33:03.358Z,0.40
2022-09-01T16:35:48.855Z,1.10
2022-09-01T16:38:53.052Z,1.13
2022-09-01T16:41:44.934Z,0.90
2022-09-01T16:44:35.092Z,1.88
2022-09-01T16:47:21.459Z,0.52
2022-09-01T16:49:51.229Z,0.68
2022-09-01T16:52:29.465Z,1.77
2022-09-01T16:55:24.157Z,3.55
2022-09-01T16:58:06.236Z,1.23
2022-09-01T17:00:51.997Z,0.85
2022-09-01T17:03:39.836Z,2.58
2022-09-01T17:06:23.415Z,1.83
2022-09-01T17:08:52.837Z,1.77
2022-09-01T17:11:34.548Z,2.25
2022-09-01T17:14:02.956Z,1.67
2022-09-01T17:16:37.141Z,3.28
2022-09-01T17:19:07.549Z,2.05
2022-09-01T17:21:37.587Z,2.95
2022-09-01T17:24:12.526Z,1.33
2022-09-01T17:26:40.864Z,1.45
2022-09-01T17:29:24.631Z,1.48
2022-09-01T17:32:17.875Z,0.93
2022-09-01T17:34:57.778Z,2.90
2022-09-01T17:37:46.658Z,4.20
2022-09-01T17:40:20.598Z,4.38
2022-09-01T17:42:53.921Z,8.18
2022-09-01T17:45:29.095Z,2.33
2022-09-01T17:48:06.317Z,3.13
2022-09-01T17:51:01.154Z,3.55
2022-09-01T17:53:40.869Z,4.07
2022-09-01T17:56:28.567Z,4.97
2022-09-01T17:59:10.513Z,3.00
2022-09-01T18:01:43.965Z,3.65
2022-09-01T18:04:38.726Z,1.60
2022-09-01T18:07:18.365Z,1.30
2022-09-01T18:09:54.321Z,4.18
2022-09-01T18:12:28.467Z,3.95
2022-09-01T18:15:09.077Z,3.05
2022-09-01T18:17:45.513Z,2.55
2022-09-01T18:20:26.718Z,4.65
2022-09-01T18:23:01.361Z,3.63
2022-09-01T18:25:42.697Z,7.65
2022-09-01T18:28:10.078Z,6.43
2022-09-01T18:31:06.852Z,11.18
2022-09-01T18:33:55.556Z,5.63
2022-09-01T18:36:50.128Z,5.03
2022-09-01T18:39:41.709Z,9.02
2022-09-01T18:42:23.983Z,8.48
2022-09-01T18:45:29.358Z,3.45
2022-09-01T18:48:23.231Z,2.50
2022-09-01T18:51:16.813Z,5.25
2022-09-01T18:54:02.239Z,3.88
2022-09-01T18:56:38.234Z,2.53
2022-09-01T18:59:36.667Z,2.53
2022-09-01T19:02:35.239Z,2.60
2022-09-01T19:05:34.568Z,3.40
2022-09-01T19:08:16.302Z,2.90
2022-09-01T19:10:48.903Z,4.95
2022-09-01T19:13:37.223Z,5.93
2022-09-01T19:16:18.532Z,19.90
2022-09-01T19:18:52.024Z,13.60
2022-09-01T19:21:28.560Z,31.45
2022-09-01T19:24:33.418Z,28.02
2022-09-01T19:27:14.608Z,30.05
2022-09-01T19:30:09.002Z,22.33
2022-09-01T19:32:36.896Z,15.43
2022-09-01T19:35:11.386Z,9.18
2022-09-01T19:37:39.974Z,8.23
2022-09-01T19:40:10.544Z,9.05
2022-09-01T19:43:08.764Z,6.50
2022-09-01T19:45:36.005Z,5.07
2022-09-01T19:48:16.439Z,3.97
2022-09-01T19:51:18.179Z,4.63
2022-09-01T19:54:09.299Z,3.63
2022-09-01T19:56:57.741Z,4.00
2022-09-01T19:59:32.153Z,7.18
2022-09-01T20:02:02.501Z,4.70
2022-09-01T20:04:46.643Z,6.28
2022-09-01T20:07:25.075Z,5.38
2022-09-01T20:10:24.909Z,4.70
2022-09-01T20:13:29.103Z,4.68
2022-09-01T20:16:23.430Z,7.70
2022-09-01T20:18:58.507Z,4.90
2022-09-01T20:21:26.923Z,4.75
2022-09-01T20:24:34.562Z,11.20
2022-09-01T20:27:13.019Z,6.70
2022-09-01T20:29:47.541Z,4.72
2022-09-01T20:32:20.496Z,5.38
2022-09-01T20:35:14.602Z,7.22
2022-09-01T20:38:03.825Z,7.05
2022-09-01T20:40:42.222Z,9.52
2022-09-01T20:43:19.313Z,7.20
2022-09-01T20:45:47.114Z,7.70
2022-09-01T20:48:24.413Z,5.88
2022-09-01T20:51:03.207Z,4.90
2022-09-01T20:54:07.045Z,7.00
2022-09-01T20:57:08.703Z,4.55
2022-09-01T20:59:49.141Z,6.32
2022-09-01T21:02:26.141Z,5.25
2022-09-01T21:04:56.377Z,5.70
2022-09-01T21:07:36.577Z,8.93
2022-09-01T21:10:26.583Z,8.85
2022-09-01T21:13:21.704Z,9.88
2022-09-01T21:15:54.114Z,9.93
2022-09-01T21:18:39.729Z,8.77
2022-09-01T21:21:31.543Z,10.02
2022-09-01T21:23:58.608Z,9.05
2022-09-01T21:26:25.684Z,10.63
2022-09-01T21:28:55.381Z,7.20
2022-09-01T21:31:24.440Z,10.35
2022-09-01T21:33:51.650Z,8.43
2022-09-01T21:36:19.120Z,7.97
2022-09-01T21:38:46.162Z,7.35
2022-09-01T21:41:13.799Z,7.78
2022-09-01T21:43:44.289Z,9.68
2022-09-01T21:46:13.769Z,10.48
2022-09-01T21:48:41.001Z,10.32
2022-09-01T21:51:07.998Z,17.88
2022-09-01T21:53:35.083Z,18.42
2022-09-01T21:56:02.289Z,22.98
2022-09-01T21:58:29.541Z,20.33
2022-09-01T22:00:58.470Z,13.90
2022-09-01T22:03:25.586Z,11.13
2022-09-01T22:05:52.891Z,6.30
2022-09-01T22:08:19.882Z,5.57
2022-09-01T22:10:50.062Z,5.60
2022-09-01T22:13:18.636Z,7.88
2022-09-01T22:15:51.804Z,5.07
2022-09-01T22:18:20.220Z,4.53
2022-09-01T22:20:47.389Z,5.25
2022-09-01T22:23:15.281Z,4.78
2022-09-01T22:25:47.204Z,6.43
2022-09-01T22:30:46.443Z,3.55
2022-09-01T22:33:14.388Z,5.03
2022-09-01T22:35:43.682Z,4.68
2022-09-01T22:38:11.537Z,4.45
2022-09-01T22:40:51.438Z,2.78
2022-09-01T22:43:19.660Z,3.30
2022-09-01T22:45:49.389Z,4.40
2022-09-01T22:48:18.341Z,2.72
2022-09-01T22:50:46.446Z,3.88
2022-09-01T22:53:15.149Z,4.20
2022-09-01T22:55:44.963Z,4.03
2022-09-01T22:58:12.876Z,4.32
2022-09-01T23:00:44.674Z,7.05
2022-09-01T23:03:11.990Z,4.28
2022-09-01T23:05:38.995Z,5.00
2022-09-01T23:08:06.010Z,5.25
2022-09-01T23:10:33.205Z,5.28
2022-09-01T23:13:00.365Z,5.10
2022-09-01T23:15:27.544Z,5.68
2022-09-01T23:17:54.718Z,4.35
2022-09-01T23:20:22.098Z,5.43
2022-09-01T23:22:49.090Z,4.60
2022-09-01T23:25:16.629Z,6.38
2022-09-01T23:27:43.702Z,6.03
2022-09-01T23:30:13.103Z,6.35
2022-09-01T23:32:41.062Z,4.15
2022-09-01T23:35:08.619Z,9.65
2022-09-01T23:37:35.769Z,11.70
2022-09-01T23:40:04.542Z,8.32
2022-09-01T23:42:31.641Z,10.10
2022-09-01T23:44:58.724Z,7.63
2022-09-01T23:47:25.851Z,4.90
2022-09-01T23:49:52.843Z,4.07
2022-09-01T23:52:20.001Z,6.05
2022-09-01T23:54:46.988Z,6.07
2022-09-01T23:57:14.198Z,4.32
2022-09-01T23:59:41.165Z,4.90
